createdAt,value
2018-11-06T00:01:27.562Z,93.40
2018-11-06T00:03:36.394Z,93.50
2018-11-06T00:05:39.918Z,93.40
2018-11-06T00:07:44.109Z,93.50
2018-11-06T00:09:48.947Z,93.60
2018-11-06T00:11:52.547Z,93.80
2018-11-06T00:13:56.235Z,93.50
2018-11-06T00:18:03.659Z,93.60
2018-11-06T00:20:10.319Z,93.60
2018-11-06T00:22:13.582Z,93.60
2018-11-06T00:24:17.618Z,93.70
2018-11-06T00:26:21.749Z,93.40
2018-11-06T00:28:25.049Z,93.30
2018-11-06T00:30:28.438Z,93.70
2018-11-06T00:32:31.701Z,93.50
2018-11-06T00:34:35.456Z,95.20
2018-11-06T00:36:39.521Z,96.20
2018-11-06T00:38:42.822Z,96.20
2018-11-06T00:40:46.539Z,96.30
2018-11-06T00:42:50.014Z,96.10
2018-11-06T00:44:53.648Z,96.20
2018-11-06T00:46:56.895Z,95.90
2018-11-06T00:49:00.530Z,95.70
2018-11-06T00:51:05.790Z,95.40
2018-11-06T00:53:09.069Z,95.30
2018-11-06T00:55:12.832Z,95.30
2018-11-06T00:57:16.094Z,95.00
2018-11-06T00:59:19.348Z,94.80
2018-11-06T01:01:23.419Z,94.80
2018-11-06T01:03:32.107Z,94.80
2018-11-06T01:05:35.767Z,94.70
2018-11-06T01:07:39.099Z,94.70
2018-11-06T01:09:42.381Z,94.70
2018-11-06T01:11:46.558Z,94.50
2018-11-06T01:13:51.250Z,94.60
2018-11-06T01:15:54.827Z,94.40
2018-11-06T01:17:58.069Z,94.50
2018-11-06T01:20:01.360Z,94.80
2018-11-06T01:22:05.378Z,94.80
2018-11-06T01:24:09.251Z,94.50
2018-11-06T01:26:13.368Z,95.00
2018-11-06T01:28:16.623Z,95.40
2018-11-06T01:30:20.635Z,95.50
2018-11-06T01:32:25.354Z,95.80
2018-11-06T01:34:28.631Z,95.80
2018-11-06T01:36:32.426Z,95.90
2018-11-06T01:38:35.779Z,96.10
2018-11-06T01:40:39.063Z,96.10
2018-11-06T01:42:43.544Z,95.60
2018-11-06T01:44:46.881Z,95.00
2018-11-06T01:46:50.521Z,94.60
2018-11-06T01:48:53.790Z,94.50
2018-11-06T01:50:57.360Z,94.30
2018-11-06T01:53:02.018Z,94.50
2018-11-06T01:55:06.099Z,94.70
2018-11-06T01:57:10.203Z,94.60
2018-11-06T01:59:13.447Z,94.90
2018-11-06T02:01:16.718Z,95.00
2018-11-06T02:03:21.718Z,94.90
2018-11-06T02:05:24.997Z,95.00
2018-11-06T02:07:28.662Z,94.90
2018-11-06T02:09:32.211Z,94.90
2018-11-06T02:11:35.546Z,94.80
2018-11-06T02:13:40.358Z,94.70
2018-11-06T02:17:47.272Z,94.70
2018-11-06T02:19:50.662Z,94.90
2018-11-06T02:21:55.227Z,94.80
2018-11-06T02:23:58.985Z,95.00
2018-11-06T02:26:02.262Z,95.00
2018-11-06T02:28:06.163Z,95.00
2018-11-06T02:30:11.423Z,94.90
2018-11-06T02:32:14.704Z,95.00
2018-11-06T02:34:19.999Z,95.00
2018-11-06T02:38:26.618Z,94.50
2018-11-06T02:40:30.186Z,94.50
2018-11-06T02:42:33.429Z,94.60
2018-11-06T02:44:37.194Z,94.60
2018-11-06T02:46:40.486Z,94.40
2018-11-06T02:50:47.167Z,94.50
2018-11-06T02:52:50.742Z,94.50
2018-11-06T02:54:55.002Z,94.60
2018-11-06T02:56:58.261Z,94.70
2018-11-06T02:59:02.273Z,95.00
2018-11-06T03:01:13.430Z,94.80
2018-11-06T03:03:16.691Z,94.80
2018-11-06T03:05:19.922Z,94.80
2018-11-06T03:07:23.510Z,94.70
2018-11-06T03:11:30.642Z,94.60
2018-11-06T03:13:34.098Z,94.80
2018-11-06T03:15:37.330Z,94.80
2018-11-06T03:17:40.569Z,94.60
2018-11-06T03:19:45.583Z,94.80
2018-11-06T03:21:50.785Z,95.10
2018-11-06T03:23:54.059Z,95.30
2018-11-06T03:25:57.638Z,95.40
2018-11-06T03:28:00.909Z,95.30
2018-11-06T03:30:04.671Z,95.10
2018-11-06T03:32:09.094Z,95.00
2018-11-06T03:34:12.354Z,95.60
2018-11-06T03:36:15.602Z,95.00
2018-11-06T03:38:20.388Z,94.70
2018-11-06T03:40:23.631Z,94.90
2018-11-06T03:42:28.413Z,94.80
2018-11-06T03:50:41.919Z,94.90
2018-11-06T03:52:46.002Z,95.20
2018-11-06T03:54:49.246Z,95.00
2018-11-06T03:56:54.394Z,95.10
2018-11-06T03:58:57.678Z,95.20
2018-11-06T04:01:00.938Z,95.50
2018-11-06T04:03:06.777Z,95.70
2018-11-06T04:05:10.591Z,95.50
2018-11-06T04:07:13.833Z,95.50
2018-11-06T04:09:17.375Z,95.50
2018-11-06T04:11:20.622Z,95.40
2018-11-06T04:13:24.741Z,96.20
2018-11-06T04:15:29.129Z,96.10
2018-11-06T04:17:32.363Z,96.60
2018-11-06T04:19:35.634Z,96.70
2018-11-06T04:21:40.344Z,96.60
2018-11-06T04:23:45.603Z,97.20
2018-11-06T04:25:48.843Z,97.80
2018-11-06T04:27:52.358Z,98.60
2018-11-06T04:29:55.608Z,98.70
2018-11-06T04:31:58.882Z,99.00
2018-11-06T04:34:04.186Z,99.20
2018-11-06T04:36:07.426Z,99.30
2018-11-06T04:38:10.678Z,98.90
2018-11-06T04:40:15.011Z,99.10
2018-11-06T04:42:18.337Z,99.10
2018-11-06T04:44:23.833Z,98.90
2018-11-06T04:46:27.276Z,98.70
2018-11-06T04:48:30.518Z,98.50
2018-11-06T04:51:54.433Z,98.30
2018-11-06T04:56:04.281Z,98.30
2018-11-06T04:58:07.834Z,98.20
2018-11-06T05:00:13.634Z,98.10
2018-11-06T05:02:16.977Z,97.20
2018-11-06T05:04:20.941Z,98.20
2018-11-06T05:06:25.142Z,98.30
2018-11-06T05:08:28.425Z,98.30
2018-11-06T05:10:32.998Z,98.40
2018-11-06T05:12:36.366Z,97.90
2018-11-06T05:14:39.614Z,97.80
2018-11-06T05:16:43.919Z,97.90
2018-11-06T05:18:47.285Z,97.90
2018-11-06T05:20:50.534Z,97.90
2018-11-06T05:22:54.077Z,97.80
2018-11-06T05:24:57.426Z,97.70
2018-11-06T05:27:02.715Z,97.80
2018-11-06T05:29:07.135Z,97.80
2018-11-06T05:31:10.366Z,98.00
2018-11-06T05:33:13.610Z,97.80
2018-11-06T05:35:17.218Z,96.30
2018-11-06T05:37:21.392Z,96.30
2018-11-06T05:39:24.683Z,96.60
2018-11-06T05:41:28.223Z,96.50
2018-11-06T05:43:31.479Z,96.70
2018-11-06T05:45:34.794Z,96.80
2018-11-06T05:47:40.456Z,97.20
2018-11-06T05:49:43.738Z,97.10
2018-11-06T05:51:47.123Z,97.40
2018-11-06T05:53:50.386Z,97.40
2018-11-06T05:55:53.619Z,97.60
2018-11-06T05:57:57.878Z,97.60
2018-11-06T06:00:01.428Z,97.60
2018-11-06T06:02:04.663Z,97.10
2018-11-06T06:04:07.897Z,96.90
2018-11-06T06:06:12.858Z,97.20
2018-11-06T06:08:16.982Z,96.90
2018-11-06T06:10:20.241Z,96.90
2018-11-06T06:12:23.511Z,96.90
2018-11-06T06:14:26.757Z,97.10
2018-11-06T06:16:30.031Z,97.20
2018-11-06T06:18:34.334Z,97.20
2018-11-06T06:20:37.583Z,97.00
2018-11-06T06:22:41.009Z,97.30
2018-11-06T06:24:44.918Z,97.20
2018-11-06T06:26:48.174Z,96.90
2018-11-06T06:28:53.549Z,96.80
2018-11-06T06:30:57.038Z,96.80
2018-11-06T06:33:01.835Z,96.80
2018-11-06T06:35:05.513Z,96.70
2018-11-06T06:37:09.890Z,96.70
2018-11-06T06:39:14.186Z,96.60
2018-11-06T06:41:17.422Z,96.80
2018-11-06T06:43:21.265Z,96.70
2018-11-06T06:45:24.518Z,96.40
2018-11-06T06:47:27.802Z,96.40
2018-11-06T06:49:33.218Z,96.50
2018-11-06T06:51:36.471Z,96.40
2018-11-06T06:53:39.745Z,96.60
2018-11-06T06:55:43.285Z,96.70
2018-11-06T06:57:47.553Z,96.30
2018-11-06T06:59:51.546Z,96.50
2018-11-06T07:01:55.115Z,96.40
2018-11-06T07:03:58.375Z,96.80
2018-11-06T07:06:01.610Z,96.60
2018-11-06T07:08:06.567Z,96.30
2018-11-06T07:10:12.513Z,96.50
2018-11-06T07:12:15.759Z,96.40
2018-11-06T07:14:19.286Z,96.20
2018-11-06T07:16:22.549Z,96.50
2018-11-06T07:18:25.857Z,96.00
2018-11-06T07:20:30.674Z,96.10
2018-11-06T07:22:33.909Z,95.80
2018-11-06T07:24:37.152Z,96.00
2018-11-06T07:26:40.590Z,95.80
2018-11-06T07:28:43.871Z,95.80
2018-11-06T07:30:49.009Z,95.70
2018-11-06T07:32:52.579Z,95.80
2018-11-06T07:34:55.954Z,95.70
2018-11-06T07:36:59.067Z,95.30
2018-11-06T07:39:02.651Z,94.90
2018-11-06T07:41:06.625Z,94.70
2018-11-06T07:43:09.840Z,94.00
2018-11-06T07:45:17.538Z,94.20
2018-11-06T07:47:20.790Z,93.50
2018-11-06T07:49:24.039Z,93.60
2018-11-06T07:51:29.118Z,92.70
2018-11-06T07:53:32.390Z,93.00
2018-11-06T07:55:35.672Z,92.80
2018-11-06T07:57:38.953Z,92.50
2018-11-06T07:59:42.211Z,92.90
2018-11-06T08:01:46.285Z,92.40
2018-11-06T08:03:49.578Z,92.00
2018-11-06T08:05:52.827Z,92.00
2018-11-06T08:07:56.072Z,91.40
2018-11-06T08:10:01.622Z,91.40
2018-11-06T08:12:06.358Z,91.60
2018-11-06T08:14:09.607Z,91.80
2018-11-06T08:16:12.914Z,91.70
2018-11-06T08:18:16.161Z,91.40
2018-11-06T08:20:19.422Z,91.60
2018-11-06T08:22:23.859Z,91.70
2018-11-06T08:24:27.119Z,91.60
2018-11-06T08:26:30.357Z,91.40
2018-11-06T08:28:34.458Z,91.90
2018-11-06T08:30:37.943Z,92.40
2018-11-06T08:32:43.436Z,92.60
2018-11-06T08:34:46.582Z,92.80
2018-11-06T08:36:50.444Z,92.00
2018-11-06T08:38:53.674Z,91.70
2018-11-06T08:40:57.267Z,91.60
2018-11-06T08:43:01.422Z,91.50
2018-11-06T08:45:06.089Z,91.40
2018-11-06T08:47:10.478Z,91.20
2018-11-06T08:49:13.721Z,91.30
2018-11-06T08:51:17.034Z,90.90
2018-11-06T08:53:22.442Z,90.50
2018-11-06T08:55:25.713Z,90.40
2018-11-06T08:57:28.969Z,90.60
2018-11-06T08:59:32.631Z,90.50
2018-11-06T09:01:35.882Z,90.40
2018-11-06T09:03:40.067Z,90.00
2018-11-06T09:05:43.365Z,88.20
2018-11-06T09:07:46.640Z,88.90
2018-11-06T09:09:49.883Z,88.10
2018-11-06T09:11:55.029Z,87.10
2018-11-06T09:13:59.302Z,87.30
2018-11-06T09:16:02.578Z,86.10
2018-11-06T09:18:06.140Z,85.90
2018-11-06T09:20:10.799Z,86.30
2018-11-06T09:22:14.053Z,85.60
2018-11-06T09:24:18.802Z,85.10
2018-11-06T09:26:22.074Z,85.00
2018-11-06T09:28:25.342Z,84.90
2018-11-06T09:30:28.950Z,84.30
2018-11-06T09:32:32.325Z,82.50
2018-11-06T09:34:37.006Z,83.00
2018-11-06T09:36:40.567Z,81.50
2018-11-06T09:38:43.818Z,82.20
2018-11-06T09:40:47.064Z,81.90
2018-11-06T09:42:50.661Z,80.00
2018-11-06T09:44:54.823Z,80.50
2018-11-06T09:46:58.037Z,81.70
2018-11-06T09:49:01.662Z,82.50
2018-11-06T09:51:05.242Z,80.30
2018-11-06T09:53:08.565Z,80.90
2018-11-06T09:55:14.258Z,81.30
2018-11-06T09:57:17.494Z,82.20
2018-11-06T09:59:20.818Z,81.90
2018-11-06T10:01:24.102Z,81.70
2018-11-06T10:03:27.378Z,81.10
2018-11-06T10:05:31.810Z,81.50
2018-11-06T10:07:35.697Z,81.20
2018-11-06T10:09:38.917Z,79.80
2018-11-06T10:11:42.186Z,80.20
2018-11-06T10:13:47.418Z,78.10
2018-11-06T10:15:51.538Z,78.50
2018-11-06T10:17:54.785Z,79.10
2018-11-06T10:19:58.083Z,80.40
2018-11-06T10:22:01.326Z,79.80
2018-11-06T10:24:05.232Z,78.00
2018-11-06T10:26:09.722Z,76.90
2018-11-06T10:28:12.976Z,76.90
2018-11-06T10:30:18.058Z,75.40
2018-11-06T10:32:21.328Z,72.00
2018-11-06T10:34:24.678Z,72.30
2018-11-06T10:36:29.535Z,68.30
2018-11-06T10:38:33.025Z,68.70
2018-11-06T10:40:36.274Z,67.40
2018-11-06T10:42:39.545Z,65.30
2018-11-06T10:44:43.145Z,65.80
2018-11-06T10:46:47.381Z,60.10
2018-11-06T10:48:50.630Z,60.60
2018-11-06T10:50:53.960Z,58.20
2018-11-06T10:52:57.201Z,58.60
2018-11-06T10:55:00.522Z,59.10
2018-11-06T10:57:06.229Z,57.00
2018-11-06T10:59:09.603Z,57.60
2018-11-06T11:01:18.346Z,57.20
2018-11-06T11:03:27.369Z,56.80
2018-11-06T11:05:31.024Z,57.40
2018-11-06T11:07:35.228Z,55.80
2018-11-06T11:09:38.782Z,53.70
2018-11-06T11:11:42.021Z,51.00
2018-11-06T11:13:45.267Z,44.20
2018-11-06T11:15:50.806Z,44.60
2018-11-06T11:17:55.073Z,44.90
2018-11-06T11:19:58.318Z,43.40
2018-11-06T11:22:01.610Z,41.90
2018-11-06T11:24:05.678Z,42.40
2018-11-06T11:26:08.916Z,43.20
2018-11-06T11:28:13.374Z,44.10
2018-11-06T11:30:17.293Z,42.20
2018-11-06T11:32:20.551Z,40.10
2018-11-06T11:36:26.834Z,37.30
2018-11-06T11:38:31.364Z,37.70
2018-11-06T11:40:34.920Z,38.70
2018-11-06T11:42:38.198Z,38.60
2018-11-06T11:44:41.436Z,38.30
2018-11-06T11:46:46.217Z,36.70
2018-11-06T11:48:50.590Z,37.80
2018-11-06T11:50:53.836Z,38.40
2018-11-06T11:52:57.425Z,36.90
2018-11-06T11:55:00.701Z,37.40
2018-11-06T11:57:04.054Z,36.00
2018-11-06T11:59:09.780Z,32.70
2018-11-06T12:01:13.074Z,31.60
2018-11-06T12:03:16.333Z,31.90
2018-11-06T12:05:20.138Z,32.00
2018-11-06T12:07:23.378Z,33.00
2018-11-06T12:09:27.382Z,32.50
2018-11-06T12:11:34.824Z,32.50
2018-11-06T12:13:38.202Z,32.50
2018-11-06T12:15:41.463Z,31.80
2018-11-06T12:17:47.674Z,32.30
2018-11-06T12:19:51.835Z,32.40
2018-11-06T12:21:55.290Z,32.20
2018-11-06T12:23:59.305Z,31.70
2018-11-06T12:26:02.558Z,30.60
2018-11-06T12:28:05.869Z,30.00
2018-11-06T12:30:13.328Z,30.30
2018-11-06T12:32:16.595Z,29.90
2018-11-06T12:34:19.838Z,30.50
2018-11-06T12:36:23.494Z,30.70
2018-11-06T12:38:26.807Z,33.30
2018-11-06T12:40:31.417Z,34.20
2018-11-06T12:42:36.291Z,35.90
2018-11-06T12:44:39.518Z,36.90
2018-11-06T12:46:42.778Z,39.80
2018-11-06T12:48:46.263Z,39.80
2018-11-06T12:50:50.918Z,40.00
2018-11-06T12:52:54.145Z,40.70
2018-11-06T12:54:57.756Z,41.30
2018-11-06T12:57:01.010Z,41.40
2018-11-06T12:59:04.308Z,39.50
2018-11-06T13:01:10.519Z,39.00
2018-11-06T13:03:13.811Z,38.80
2018-11-06T13:05:17.030Z,38.90
2018-11-06T13:07:20.593Z,38.80
2018-11-06T13:09:23.852Z,39.50
2018-11-06T13:11:27.917Z,39.90
2018-11-06T13:13:31.494Z,40.40
2018-11-06T13:15:37.843Z,41.60
2018-11-06T13:17:42.959Z,42.40
2018-11-06T13:19:50.518Z,40.80
2018-11-06T13:21:55.062Z,38.60
2018-11-06T13:23:58.437Z,36.30
2018-11-06T13:26:02.075Z,36.00
2018-11-06T13:28:05.525Z,36.30
2018-11-06T13:30:12.506Z,35.90
2018-11-06T13:32:16.943Z,36.40
2018-11-06T13:34:20.637Z,34.30
2018-11-06T13:36:23.890Z,33.40
2018-11-06T13:38:27.179Z,33.80
2018-11-06T13:40:30.503Z,38.10
2018-11-06T13:42:36.248Z,37.30
2018-11-06T13:44:39.562Z,37.70
2018-11-06T13:46:42.646Z,38.50
2018-11-06T13:48:45.898Z,37.20
2018-11-06T13:50:49.183Z,37.10
2018-11-06T13:52:53.217Z,36.90
2018-11-06T13:56:17.154Z,36.00
2018-11-06T13:58:21.058Z,34.90
2018-11-06T14:00:24.310Z,36.30
2018-11-06T14:02:27.754Z,36.70
2018-11-06T14:06:36.001Z,40.70
2018-11-06T14:08:39.463Z,39.90
2018-11-06T14:10:42.734Z,38.70
2018-11-06T14:12:46.206Z,36.80
2018-11-06T14:14:51.087Z,37.40
2018-11-06T14:16:54.326Z,37.80
2018-11-06T14:18:57.567Z,37.30
2018-11-06T14:21:05.032Z,37.70
2018-11-06T14:23:08.234Z,39.80
2018-11-06T14:25:12.929Z,40.20
2018-11-06T14:27:16.587Z,42.30
2018-11-06T14:29:20.182Z,44.00
2018-11-06T14:31:23.413Z,45.10
2018-11-06T14:33:27.158Z,45.80
2018-11-06T14:35:31.311Z,47.00
2018-11-06T14:37:35.250Z,45.90
2018-11-06T14:39:38.878Z,46.60
2018-11-06T14:41:42.218Z,45.40
2018-11-06T14:43:45.478Z,43.40
2018-11-06T14:45:51.390Z,42.30
2018-11-06T14:47:54.703Z,42.50
2018-11-06T14:49:57.871Z,44.30
2018-11-06T14:52:01.657Z,45.90
2018-11-06T14:54:05.018Z,46.90
2018-11-06T14:58:12.538Z,47.30
2018-11-06T15:00:17.980Z,48.50
2018-11-06T15:02:21.393Z,50.30
2018-11-06T15:04:25.831Z,53.30
2018-11-06T15:06:30.501Z,54.70
2018-11-06T15:08:34.333Z,55.90
2018-11-06T15:10:38.377Z,59.30
2018-11-06T15:12:41.959Z,61.70
2018-11-06T15:14:45.323Z,61.80
2018-11-06T15:16:50.169Z,62.90
2018-11-06T15:18:53.405Z,62.80
2018-11-06T15:20:57.421Z,63.20
2018-11-06T15:23:01.540Z,64.30
2018-11-06T15:25:05.450Z,64.90
2018-11-06T15:27:09.590Z,65.50
2018-11-06T15:29:15.063Z,67.30
2018-11-06T15:31:26.039Z,67.70
2018-11-06T15:33:29.422Z,68.00
2018-11-06T15:35:33.532Z,67.70
2018-11-06T15:37:41.867Z,68.90
2018-11-06T15:39:46.039Z,69.50
2018-11-06T15:41:51.822Z,69.70
2018-11-06T15:43:55.042Z,70.00
2018-11-06T15:45:58.291Z,70.30
2018-11-06T15:48:05.186Z,71.20
2018-11-06T15:50:10.069Z,72.30
2018-11-06T15:52:13.315Z,72.70
2018-11-06T15:54:16.989Z,74.00
2018-11-06T15:56:20.698Z,74.10
2018-11-06T15:58:24.939Z,74.60
2018-11-06T16:00:28.408Z,74.60
2018-11-06T16:02:31.664Z,75.40
2018-11-06T16:04:35.237Z,75.70
2018-11-06T16:06:39.537Z,75.60
2018-11-06T16:08:47.627Z,75.70
2018-11-06T16:10:50.875Z,76.50
2018-11-06T16:12:54.401Z,76.60
2018-11-06T16:14:57.666Z,78.50
2018-11-06T16:19:49.012Z,80.70
2018-11-06T16:24:00.603Z,83.10
2018-11-06T16:26:04.222Z,83.50
2018-11-06T16:28:08.638Z,84.10
2018-11-06T16:30:16.657Z,84.10
2018-11-06T16:32:20.855Z,84.60
2018-11-06T16:34:24.117Z,84.40
2018-11-06T16:36:27.353Z,84.00
2018-11-06T16:38:31.775Z,84.10
2018-11-06T16:40:35.374Z,84.50
2018-11-06T16:42:42.403Z,85.20
2018-11-06T16:46:49.677Z,84.20
2018-11-06T16:48:52.981Z,84.10
2018-11-06T16:50:56.414Z,84.90
2018-11-06T16:53:00.322Z,84.20
2018-11-06T16:55:03.576Z,84.70
2018-11-06T16:57:08.197Z,85.70
2018-11-06T16:59:11.902Z,85.60
2018-11-06T17:01:15.322Z,86.10
2018-11-06T17:03:20.175Z,86.80
2018-11-06T17:05:23.483Z,86.60
2018-11-06T17:07:28.556Z,87.00
2018-11-06T17:09:32.297Z,87.10
2018-11-06T17:11:41.584Z,87.30
2018-11-06T17:13:45.772Z,87.30
2018-11-06T17:15:49.776Z,87.90
2018-11-06T17:17:53.899Z,88.20
2018-11-06T17:19:57.149Z,88.10
2018-11-06T17:22:01.966Z,88.60
2018-11-06T17:24:07.033Z,89.20
2018-11-06T17:26:10.301Z,88.30
2018-11-06T17:28:14.039Z,89.10
2018-11-06T17:30:18.374Z,88.90
2018-11-06T17:32:21.854Z,88.90
2018-11-06T17:34:26.690Z,89.10
2018-11-06T17:36:30.526Z,88.50
2018-11-06T17:38:33.797Z,88.60
2018-11-06T17:40:37.322Z,88.50
2018-11-06T17:42:40.862Z,88.30
2018-11-06T17:44:46.347Z,88.50
2018-11-06T17:46:50.621Z,88.50
2018-11-06T17:48:53.980Z,88.90
2018-11-06T17:50:57.265Z,89.10
2018-11-06T17:53:01.986Z,88.90
2018-11-06T17:55:07.652Z,88.90
2018-11-06T17:57:10.926Z,89.00
2018-11-06T17:59:14.813Z,88.90
2018-11-06T18:01:18.461Z,88.60
2018-11-06T18:03:22.255Z,88.90
2018-11-06T18:05:28.341Z,89.20
2018-11-06T18:07:32.214Z,89.40
2018-11-06T18:09:35.600Z,89.10
2018-11-06T18:11:41.075Z,89.30
2018-11-06T18:13:45.440Z,89.20
2018-11-06T18:15:50.011Z,88.70
2018-11-06T18:17:53.932Z,88.60
2018-11-06T18:19:57.243Z,88.80
2018-11-06T18:22:00.638Z,88.20
2018-11-06T18:24:05.532Z,88.10
2018-11-06T18:26:09.704Z,88.70
2018-11-06T18:28:13.249Z,89.40
2018-11-06T18:30:18.929Z,89.70
2018-11-06T18:32:22.919Z,90.00
2018-11-06T18:36:31.665Z,89.70
2018-11-06T18:38:35.148Z,89.50
2018-11-06T18:40:38.464Z,89.50
2018-11-06T18:42:42.507Z,89.90
2018-11-06T18:44:46.075Z,89.80
2018-11-06T18:46:50.699Z,90.00
2018-11-06T18:48:55.334Z,90.00
2018-11-06T18:50:58.701Z,89.60
2018-11-06T18:53:02.064Z,89.60
2018-11-06T18:55:07.120Z,89.30
2018-11-06T18:57:11.439Z,89.40
2018-11-06T18:59:15.254Z,89.80
2018-11-06T19:01:19.836Z,88.70
2018-11-06T19:03:24.201Z,90.30
2018-11-06T19:05:27.710Z,89.80
2018-11-06T19:07:33.732Z,90.00
2018-11-06T19:09:37.891Z,90.10
2018-11-06T19:11:42.300Z,90.30
2018-11-06T19:13:46.702Z,90.10
2018-11-06T19:15:51.259Z,89.80
2018-11-06T19:17:56.970Z,89.50
2018-11-06T19:20:04.180Z,89.30
2018-11-06T19:22:09.237Z,89.90
2018-11-06T19:24:20.796Z,90.00
2018-11-06T19:26:25.855Z,90.00
2018-11-06T19:28:30.971Z,90.10
2018-11-06T19:30:34.789Z,90.10
2018-11-06T19:32:39.276Z,89.30
2018-11-06T19:36:48.875Z,89.70
2018-11-06T19:38:54.454Z,89.70
2018-11-06T19:40:58.996Z,89.70
2018-11-06T19:43:03.237Z,90.10
2018-11-06T19:45:09.056Z,90.50
2018-11-06T19:47:13.182Z,90.50
2018-11-06T19:49:19.282Z,90.70
2018-11-06T19:51:24.602Z,90.50
2018-11-06T19:53:28.817Z,90.70
2018-11-06T20:01:47.485Z,90.40
2018-11-06T20:06:01.243Z,90.40
2018-11-06T20:08:07.310Z,90.30
2018-11-06T20:12:21.330Z,90.00
2018-11-06T20:14:25.880Z,90.20
2018-11-06T20:24:48.098Z,90.80
2018-11-06T20:26:53.163Z,90.60
2018-11-06T20:28:57.545Z,90.60
2018-11-06T20:31:03.192Z,90.70
2018-11-06T20:35:12.629Z,90.60
2018-11-06T20:37:16.695Z,90.90
2018-11-06T20:39:20.960Z,91.10
2018-11-06T20:41:26.383Z,90.80
2018-11-06T20:45:34.418Z,90.50
2018-11-06T20:47:38.832Z,90.70
2018-11-06T20:49:43.061Z,90.50
2018-11-06T20:51:49.217Z,90.50
2018-11-06T20:53:55.094Z,90.90
2018-11-06T20:55:59.323Z,91.00
2018-11-06T20:58:03.384Z,90.90
2018-11-06T21:00:10.471Z,90.80
2018-11-06T21:02:15.518Z,91.00
2018-11-06T21:04:19.681Z,90.60
2018-11-06T21:06:24.089Z,90.90
2018-11-06T21:08:28.233Z,90.70
2018-11-06T21:10:32.467Z,91.20
2018-11-06T21:12:39.220Z,90.60
2018-11-06T21:14:43.407Z,90.60
2018-11-06T21:16:47.425Z,90.80
2018-11-06T21:18:51.652Z,90.80
2018-11-06T21:20:55.753Z,91.00
2018-11-06T21:23:00.888Z,91.00
2018-11-06T21:25:07.723Z,91.10
2018-11-06T21:27:12.538Z,91.10
2018-11-06T21:29:16.477Z,91.10
2018-11-06T21:31:21.152Z,91.10
2018-11-06T21:33:26.903Z,91.30
2018-11-06T21:35:31.167Z,91.20
2018-11-06T21:37:35.170Z,91.40
2018-11-06T21:39:38.992Z,91.20
2018-11-06T21:41:42.434Z,91.60
2018-11-06T21:43:48.828Z,91.50
2018-11-06T21:45:52.272Z,91.40
2018-11-06T21:47:55.593Z,91.50
2018-11-06T21:50:00.067Z,91.30
2018-11-06T21:54:08.078Z,91.20
2018-11-06T21:56:11.639Z,91.20
2018-11-06T21:58:14.886Z,91.40
2018-11-06T22:00:20.455Z,91.30
2018-11-06T22:02:23.837Z,91.60
2018-11-06T22:04:27.906Z,91.70
2018-11-06T22:06:31.178Z,91.50
2018-11-06T22:10:39.137Z,91.80
2018-11-06T22:14:48.330Z,91.80
2018-11-06T22:16:51.659Z,93.00
2018-11-06T22:18:54.906Z,93.20
2018-11-06T22:23:01.448Z,92.30
2018-11-06T22:25:05.930Z,92.00
2018-11-06T22:27:10.293Z,91.70
2018-11-06T22:29:13.554Z,92.10
2018-11-06T22:31:16.815Z,92.10
2018-11-06T22:33:20.407Z,92.90
2018-11-06T22:35:25.921Z,92.80
2018-11-06T22:37:29.278Z,92.80
2018-11-06T22:39:32.634Z,92.50
2018-11-06T22:41:35.982Z,92.40
2018-11-06T22:43:39.222Z,92.50
2018-11-06T22:45:44.561Z,92.70
2018-11-06T22:47:47.810Z,92.80
2018-11-06T22:49:51.050Z,92.80
2018-11-06T22:51:54.527Z,92.80
2018-11-06T22:53:58.046Z,92.90
2018-11-06T22:56:05.608Z,93.20
2018-11-06T22:58:09.078Z,93.30
2018-11-06T23:00:16.052Z,93.00
2018-11-06T23:02:19.461Z,93.30
2018-11-06T23:04:23.237Z,93.00
2018-11-06T23:06:27.624Z,93.30
2018-11-06T23:08:31.012Z,93.00
2018-11-06T23:10:34.477Z,92.90
2018-11-06T23:12:37.789Z,93.00
2018-11-06T23:14:41.168Z,93.30
2018-11-06T23:16:46.588Z,93.30
2018-11-06T23:18:49.939Z,93.40
2018-11-06T23:20:53.351Z,93.50
2018-11-06T23:22:58.084Z,93.30
2018-11-06T23:25:01.506Z,93.10
2018-11-06T23:27:05.824Z,93.00
2018-11-06T23:29:09.736Z,93.00
2018-11-06T23:31:13.117Z,93.30
2018-11-06T23:33:16.475Z,92.80
2018-11-06T23:35:19.888Z,93.00
2018-11-06T23:37:25.395Z,92.50
2018-11-06T23:39:28.851Z,92.60
2018-11-06T23:41:33.051Z,92.10
2018-11-06T23:43:36.464Z,92.10
2018-11-06T23:45:39.832Z,92.40
2018-11-06T23:47:44.332Z,92.60
2018-11-06T23:49:47.698Z,92.60
2018-11-06T23:51:51.068Z,92.20
2018-11-06T23:53:54.694Z,92.00
2018-11-06T23:55:58.075Z,91.90
2018-11-06T23:58:03.431Z,92.00
